Zero Trim — WCY3091 — position and weather

sailwx.info

Track history (hours):
 
Tides and Currents Weather Stations Pressure Air Temp Water Temp Dewpoint Dewpoint Depression Visibility Wind Speed Wind Dir Waves Ship Positions

Zero Trim

Owner: TRIMBLE, ROBERT M, BELLEVUE, WA. More information available from US FCC via Universal Licensing System and Coast Guard Vessel Documentation Center.

Last reported at 2015-Sep-01 22:21 UTC. Time now 2015-Sep-02 23:52 UTC.
Position N 47°39' W 122°13'.

Length 23 m.

Type: Pleasure craft. MMSI: 366747760.

Date/timePositionNaut miles runAvg speedWind from/ knotsBaromVisibWave heightAir tempDewpointWater temp
2015-Sep-01 22:21N 47°39' W 122°13'0 1.3
2015-Sep-01 22:11N 47°39' W 122°13'5 6.7
2015-Sep-01 21:22N 47°39' W 122°21'1 6.4
2015-Sep-01 21:17N 47°39' W 122°22'2 2.0
2015-Sep-01 20:28N 47°40' W 122°24'0 0.3
2015-Sep-01 19:52N 47°40' W 122°24'0 0.0
2015-Sep-01 19:30N 47°40' W 122°24'0 0.9
2015-Sep-01 19:27N 47°40' W 122°24'8 8.9
2015-Sep-01 18:33N 47°48' W 122°24'47 1.0
2015-Aug-30 18:12N 48°32' W 122°48'  
2015-Aug-26 18:33N 48°31' W 122°36'1 0.6
2015-Aug-26 17:31N 48°31' W 122°36'0 0.0
2015-Aug-26 16:33N 48°31' W 122°36'0 0.0
2015-Aug-26 15:33N 48°31' W 122°36'0 0.0
2015-Aug-26 14:33N 48°31' W 122°36'0 0.0
2015-Aug-26 13:33N 48°31' W 122°36'0 0.0
2015-Aug-26 12:33N 48°31' W 122°36'0 0.0
2015-Aug-26 11:33N 48°31' W 122°36'0 0.0
2015-Aug-26 10:33N 48°31' W 122°36'0 0.0
2015-Aug-26 09:31N 48°31' W 122°36'0 0.0
2015-Aug-26 08:27N 48°31' W 122°36'0 0.0
2015-Aug-26 07:32N 48°31' W 122°36'0 0.0
2015-Aug-26 06:32N 48°31' W 122°36'0 0.0
2015-Aug-26 05:32N 48°31' W 122°36'0 0.0
2015-Aug-26 04:28N 48°31' W 122°36'0 0.0
2015-Aug-26 03:28N 48°31' W 122°36'0 0.0
2015-Aug-26 02:31N 48°31' W 122°36'0 0.0
2015-Aug-26 01:33N 48°31' W 122°36'0 0.0
2015-Aug-26 00:27N 48°31' W 122°36'0 0.0
2015-Aug-25 23:27N 48°31' W 122°36'0 0.0
2015-Aug-25 22:33N 48°31' W 122°36'0 0.0
2015-Aug-25 21:33N 48°31' W 122°36'0 0.0
2015-Aug-25 20:33N 48°31' W 122°36'0 0.0
2015-Aug-25 19:31N 48°31' W 122°36'0 0.0
2015-Aug-25 18:31N 48°31' W 122°36'36 2.0
2015-Aug-25 00:30N 47°55' W 122°31'1212.7
2015-Aug-24 23:33N 47°44' W 122°26'4 4.0
2015-Aug-24 22:33N 47°40' W 122°24'  
Track history (hours):
 
Tides and Currents Weather Stations Pressure Air Temp Water Temp Dewpoint Dewpoint Depression Visibility Wind Speed Wind Dir Waves Ship Positions

Zero Trim

Owner: TRIMBLE, ROBERT M, BELLEVUE, WA. More information available from US FCC via Universal Licensing System and Coast Guard Vessel Documentation Center.

Last reported at 2015-Sep-01 22:21 UTC. Time now 2015-Sep-02 23:52 UTC.
Position N 47°39' W 122°13'.

Length 23 m.

Type: Pleasure craft. MMSI: 366747760.

Date/timePositionNaut miles runAvg speedWind from/ knotsBaromVisibWave heightAir tempDewpointWater temp
2015-Sep-01 22:21N 47°39' W 122°13'0 1.3
2015-Sep-01 22:11N 47°39' W 122°13'5 6.7
2015-Sep-01 21:22N 47°39' W 122°21'1 6.4
2015-Sep-01 21:17N 47°39' W 122°22'2 2.0
2015-Sep-01 20:28N 47°40' W 122°24'0 0.3
2015-Sep-01 19:52N 47°40' W 122°24'0 0.0
2015-Sep-01 19:30N 47°40' W 122°24'0 0.9
2015-Sep-01 19:27N 47°40' W 122°24'8 8.9
2015-Sep-01 18:33N 47°48' W 122°24'47 1.0
2015-Aug-30 18:12N 48°32' W 122°48'  
2015-Aug-26 18:33N 48°31' W 122°36'1 0.6
2015-Aug-26 17:31N 48°31' W 122°36'0 0.0
2015-Aug-26 16:33N 48°31' W 122°36'0 0.0
2015-Aug-26 15:33N 48°31' W 122°36'0 0.0
2015-Aug-26 14:33N 48°31' W 122°36'0 0.0
2015-Aug-26 13:33N 48°31' W 122°36'0 0.0
2015-Aug-26 12:33N 48°31' W 122°36'0 0.0
2015-Aug-26 11:33N 48°31' W 122°36'0 0.0
2015-Aug-26 10:33N 48°31' W 122°36'0 0.0
2015-Aug-26 09:31N 48°31' W 122°36'0 0.0
2015-Aug-26 08:27N 48°31' W 122°36'0 0.0
2015-Aug-26 07:32N 48°31' W 122°36'0 0.0
2015-Aug-26 06:32N 48°31' W 122°36'0 0.0
2015-Aug-26 05:32N 48°31' W 122°36'0 0.0
2015-Aug-26 04:28N 48°31' W 122°36'0 0.0
2015-Aug-26 03:28N 48°31' W 122°36'0 0.0
2015-Aug-26 02:31N 48°31' W 122°36'0 0.0
2015-Aug-26 01:33N 48°31' W 122°36'0 0.0
2015-Aug-26 00:27N 48°31' W 122°36'0 0.0
2015-Aug-25 23:27N 48°31' W 122°36'0 0.0
2015-Aug-25 22:33N 48°31' W 122°36'0 0.0
2015-Aug-25 21:33N 48°31' W 122°36'0 0.0
2015-Aug-25 20:33N 48°31' W 122°36'0 0.0
2015-Aug-25 19:31N 48°31' W 122°36'0 0.0
2015-Aug-25 18:31N 48°31' W 122°36'36 2.0
2015-Aug-25 00:30N 47°55' W 122°31'1212.7
2015-Aug-24 23:33N 47°44' W 122°26'4 4.0
2015-Aug-24 22:33N 47°40' W 122°24'  

Dump ship's entire track history